METAR Formatted Surface Weather Observation
Issued by NWS

Home | Current Version | Previous Version | Text Only | Print | Product List | Glossary On
Versions: 1 2 3 4 5 6 7 8 9 10 11 12 13 14 15 16 17 18
000
SPZS31 NSTU 070842
MTRSPP
SPECI NSTU 070841Z 30008KT 5SM -SHRA SCT009 OVC016 25/24 A2982=


USA.gov is the U.S. government's official web portal to all federal, state and local government web resources and services.